メインページ
METAR-TAF:

METAR-TAF

空港 :

稚内, 日本

稚内空港

緯度: 45-24N, 経度: 141-48E, 海抜: 8m

現時点の気象観測

当レポートは14時間38分前の09:23(UTC)に作成
西/北西の風 17kt
気温 -7°C
湿度 67%
気圧 1015 hPa
視程: 1600m
高度500ftの雲はほとんどない
高度1500ftの雲は散在している
高度2000ftの千切れ雲あり
弱いにわか雪

METAR: RJCW 180923Z 30017KT 1600 R08/1200VP2000U -SHSN FEW005 SCT015 BKN020 M07/M12 Q1015 RMK 1ST005 3ST015 5CU020 A2997

時間: 09:01 (00:01 UTC)


TAF: 見つかりません

4,000以上の空港の気象観測と天気予報(METAR報とTAF報)

利用可能な観測所は地図上に黄色い丸と赤い丸で示す。

丸の上にカーソルを重ねると観測所名を参照できる。

次にクリックすると気象観測と天気予報を参照できる。

マップの切り替え:黒色「×」印の緑ボタンをクリックして拡大、「-」印の緑ボタンをクリックして縮小、緑色の三角印をクリックして隣りの地図に切り替え


METAR-TAF: